sensor_id;sensor_type;location;lat;lon;timestamp;pressure;altitude;pressure_sealevel;temperature;humidity
7614;BME280;3848;42.016;23.098;2022-08-01T00:01:52;96940.19;;;21.36;100.00
7614;BME280;3848;42.016;23.098;2022-08-01T00:04:18;96942.03;;;21.34;100.00
7614;BME280;3848;42.016;23.098;2022-08-01T00:06:45;96931.28;;;21.25;100.00
7614;BME280;3848;42.016;23.098;2022-08-01T00:09:14;96939.97;;;21.24;100.00
7614;BME280;3848;42.016;23.098;2022-08-01T00:11:40;96942.81;;;21.18;100.00
7614;BME280;3848;42.016;23.098;2022-08-01T00:14:08;96949.41;;;21.08;100.00
7614;BME280;3848;42.016;23.098;2022-08-01T00:16:36;96950.63;;;21.01;100.00
7614;BME280;3848;42.016;23.098;2022-08-01T00:19:03;96948.47;;;20.93;100.00
7614;BME280;3848;42.016;23.098;2022-08-01T00:21:30;96956.38;;;20.90;100.00
7614;BME280;3848;42.016;23.098;2022-08-01T00:23:56;96955.94;;;20.82;100.00
7614;BME280;3848;42.016;23.098;2022-08-01T00:26:25;96952.00;;;20.75;100.00
7614;BME280;3848;42.016;23.098;2022-08-01T00:28:52;96948.22;;;20.65;100.00
7614;BME280;3848;42.016;23.098;2022-08-01T00:31:19;96948.38;;;20.62;100.00
7614;BME280;3848;42.016;23.098;2022-08-01T00:33:46;96947.84;;;20.55;100.00
7614;BME280;3848;42.016;23.098;2022-08-01T00:36:13;96940.25;;;20.52;100.00
7614;BME280;3848;42.016;23.098;2022-08-01T00:38:39;96929.75;;;20.38;100.00
7614;BME280;3848;42.016;23.098;2022-08-01T00:41:06;96941.91;;;20.36;100.00
7614;BME280;3848;42.016;23.098;2022-08-01T00:43:34;96946.47;;;20.31;100.00
7614;BME280;3848;42.016;23.098;2022-08-01T00:46:01;96943.28;;;20.26;100.00
7614;BME280;3848;42.016;23.098;2022-08-01T00:48:28;96942.69;;;20.21;100.00
7614;BME280;3848;42.016;23.098;2022-08-01T00:50:55;96941.53;;;20.09;100.00
7614;BME280;3848;42.016;23.098;2022-08-01T00:53:22;96948.44;;;20.08;100.00
7614;BME280;3848;42.016;23.098;2022-08-01T00:55:50;96949.50;;;20.04;100.00
7614;BME280;3848;42.016;23.098;2022-08-01T00:58:17;96950.50;;;20.02;100.00
7614;BME280;3848;42.016;23.098;2022-08-01T01:00:45;96946.31;;;19.99;100.00
7614;BME280;3848;42.016;23.098;2022-08-01T01:03:12;96951.00;;;19.91;100.00
7614;BME280;3848;42.016;23.098;2022-08-01T01:05:45;96945.22;;;19.86;100.00
7614;BME280;3848;42.016;23.098;2022-08-01T01:08:19;96953.88;;;19.85;100.00
7614;BME280;3848;42.016;23.098;2022-08-01T01:10:55;96952.38;;;19.81;100.00
7614;BME280;3848;42.016;23.098;2022-08-01T01:13:27;96943.88;;;19.79;100.00
7614;BME280;3848;42.016;23.098;2022-08-01T01:16:03;96949.91;;;19.78;100.00
7614;BME280;3848;42.016;23.098;2022-08-01T01:18:34;96949.06;;;19.77;100.00
7614;BME280;3848;42.016;23.098;2022-08-01T01:21:07;96944.59;;;19.64;100.00
7614;BME280;3848;42.016;23.098;2022-08-01T01:23:53;96950.91;;;19.57;100.00
7614;BME280;3848;42.016;23.098;2022-08-01T01:26:31;96953.75;;;19.50;100.00
7614;BME280;3848;42.016;23.098;2022-08-01T01:29:11;96948.06;;;19.44;100.00
7614;BME280;3848;42.016;23.098;2022-08-01T01:31:43;96954.44;;;19.35;100.00
7614;BME280;3848;42.016;23.098;2022-08-01T01:34:13;96944.59;;;19.26;100.00
7614;BME280;3848;42.016;23.098;2022-08-01T01:36:40;96942.44;;;19.17;100.00
7614;BME280;3848;42.016;23.098;2022-08-01T01:39:09;96943.59;;;19.10;100.00
7614;BME280;3848;42.016;23.098;2022-08-01T01:41:37;96936.00;;;19.07;100.00
7614;BME280;3848;42.016;23.098;2022-08-01T01:44:05;96945.56;;;19.05;100.00
7614;BME280;3848;42.016;23.098;2022-08-01T01:46:35;96952.50;;;19.03;100.00
7614;BME280;3848;42.016;23.098;2022-08-01T01:49:03;96950.00;;;19.01;100.00
7614;BME280;3848;42.016;23.098;2022-08-01T01:51:32;96948.28;;;19.02;100.00
7614;BME280;3848;42.016;23.098;2022-08-01T01:54:01;96946.75;;;18.98;100.00
7614;BME280;3848;42.016;23.098;2022-08-01T01:56:29;96893.44;;;18.61;100.00
7614;BME280;3848;42.016;23.098;2022-08-01T01:58:59;96949.84;;;18.85;100.00
7614;BME280;3848;42.016;23.098;2022-08-01T02:01:29;96944.75;;;18.84;100.00
7614;BME280;3848;42.016;23.098;2022-08-01T02:03:59;96943.44;;;18.75;100.00
7614;BME280;3848;42.016;23.098;2022-08-01T02:06:29;96937.84;;;18.66;100.00
7614;BME280;3848;42.016;23.098;2022-08-01T02:09:00;96945.88;;;18.58;100.00
7614;BME280;3848;42.016;23.098;2022-08-01T02:11:28;96949.97;;;18.62;100.00
7614;BME280;3848;42.016;23.098;2022-08-01T02:13:59;96947.47;;;18.61;100.00
7614;BME280;3848;42.016;23.098;2022-08-01T02:16:29;96951.38;;;18.49;100.00
7614;BME280;3848;42.016;23.098;2022-08-01T02:18:56;96954.66;;;18.52;100.00
7614;BME280;3848;42.016;23.098;2022-08-01T02:21:33;96952.34;;;18.46;100.00
7614;BME280;3848;42.016;23.098;2022-08-01T02:24:09;96953.19;;;18.47;100.00
7614;BME280;3848;42.016;23.098;2022-08-01T02:26:38;96945.41;;;18.48;100.00
7614;BME280;3848;42.016;23.098;2022-08-01T02:29:07;96938.94;;;18.40;100.00
7614;BME280;3848;42.016;23.098;2022-08-01T02:31:39;96932.41;;;18.31;100.00
7614;BME280;3848;42.016;23.098;2022-08-01T02:34:13;96938.41;;;18.32;100.00
7614;BME280;3848;42.016;23.098;2022-08-01T02:36:44;96946.91;;;18.34;100.00
7614;BME280;3848;42.016;23.098;2022-08-01T02:39:14;96941.75;;;18.34;100.00
7614;BME280;3848;42.016;23.098;2022-08-01T02:41:43;96948.44;;;18.38;100.00
7614;BME280;3848;42.016;23.098;2022-08-01T02:44:23;96946.25;;;18.28;100.00
7614;BME280;3848;42.016;23.098;2022-08-01T02:46:54;96951.00;;;18.17;100.00
7614;BME280;3848;42.016;23.098;2022-08-01T02:49:24;96955.75;;;18.06;100.00
7614;BME280;3848;42.016;23.098;2022-08-01T02:51:54;96958.38;;;18.05;100.00
7614;BME280;3848;42.016;23.098;2022-08-01T02:54:22;96951.44;;;18.07;100.00
7614;BME280;3848;42.016;23.098;2022-08-01T02:56:51;96943.16;;;18.00;100.00
7614;BME280;3848;42.016;23.098;2022-08-01T02:59:22;96944.69;;;18.04;100.00
7614;BME280;3848;42.016;23.098;2022-08-01T03:01:51;96946.28;;;18.07;100.00
7614;BME280;3848;42.016;23.098;2022-08-01T03:04:20;96943.66;;;18.08;100.00
7614;BME280;3848;42.016;23.098;2022-08-01T03:06:48;96938.19;;;17.95;100.00
7614;BME280;3848;42.016;23.098;2022-08-01T03:09:18;96947.19;;;18.06;100.00
7614;BME280;3848;42.016;23.098;2022-08-01T03:11:45;96939.03;;;17.96;100.00
7614;BME280;3848;42.016;23.098;2022-08-01T03:14:15;96950.78;;;18.02;100.00
7614;BME280;3848;42.016;23.098;2022-08-01T03:16:44;96950.09;;;17.98;100.00
7614;BME280;3848;42.016;23.098;2022-08-01T03:19:13;96947.59;;;17.96;100.00
7614;BME280;3848;42.016;23.098;2022-08-01T03:21:42;96953.69;;;17.94;100.00
7614;BME280;3848;42.016;23.098;2022-08-01T03:24:12;96956.19;;;17.95;100.00
7614;BME280;3848;42.016;23.098;2022-08-01T03:26:43;96956.91;;;17.99;100.00
7614;BME280;3848;42.016;23.098;2022-08-01T03:29:15;96950.91;;;17.98;100.00
7614;BME280;3848;42.016;23.098;2022-08-01T03:31:44;96958.75;;;17.95;100.00
7614;BME280;3848;42.016;23.098;2022-08-01T03:34:11;96961.75;;;17.85;100.00
7614;BME280;3848;42.016;23.098;2022-08-01T03:36:44;96975.63;;;17.81;100.00
7614;BME280;3848;42.016;23.098;2022-08-01T03:39:14;96958.94;;;17.69;100.00
7614;BME280;3848;42.016;23.098;2022-08-01T03:41:47;96973.13;;;17.79;100.00
7614;BME280;3848;42.016;23.098;2022-08-01T03:44:17;96966.50;;;17.74;100.00
7614;BME280;3848;42.016;23.098;2022-08-01T03:46:48;96969.13;;;17.72;100.00
7614;BME280;3848;42.016;23.098;2022-08-01T03:49:18;96965.91;;;17.65;100.00
7614;BME280;3848;42.016;23.098;2022-08-01T03:51:47;96964.28;;;17.63;100.00
7614;BME280;3848;42.016;23.098;2022-08-01T03:54:16;96969.38;;;17.64;100.00
7614;BME280;3848;42.016;23.098;2022-08-01T03:56:48;96961.78;;;17.61;100.00
7614;BME280;3848;42.016;23.098;2022-08-01T03:59:17;96976.13;;;17.67;100.00
7614;BME280;3848;42.016;23.098;2022-08-01T04:01:45;96969.28;;;17.67;100.00
7614;BME280;3848;42.016;23.098;2022-08-01T04:04:13;96968.84;;;17.56;100.00
7614;BME280;3848;42.016;23.098;2022-08-01T04:06:40;96972.75;;;17.43;100.00
7614;BME280;3848;42.016;23.098;2022-08-01T04:09:09;96972.63;;;17.46;100.00
7614;BME280;3848;42.016;23.098;2022-08-01T04:11:36;96973.53;;;17.45;100.00
7614;BME280;3848;42.016;23.098;2022-08-01T04:14:04;96979.50;;;17.46;100.00
7614;BME280;3848;42.016;23.098;2022-08-01T04:16:31;96983.69;;;17.48;100.00
7614;BME280;3848;42.016;23.098;2022-08-01T04:18:58;96988.81;;;17.50;100.00
7614;BME280;3848;42.016;23.098;2022-08-01T04:21:26;96985.16;;;17.55;100.00
7614;BME280;3848;42.016;23.098;2022-08-01T04:23:56;96980.66;;;17.60;100.00
7614;BME280;3848;42.016;23.098;2022-08-01T04:26:25;96977.19;;;17.61;100.00
7614;BME280;3848;42.016;23.098;2022-08-01T04:28:55;96969.63;;;17.58;100.00
7614;BME280;3848;42.016;23.098;2022-08-01T04:31:24;96977.00;;;17.67;100.00
7614;BME280;3848;42.016;23.098;2022-08-01T04:33:53;96993.75;;;17.78;100.00
7614;BME280;3848;42.016;23.098;2022-08-01T04:36:23;96991.94;;;17.80;100.00
7614;BME280;3848;42.016;23.098;2022-08-01T04:38:55;96995.66;;;17.94;100.00
7614;BME280;3848;42.016;23.098;2022-08-01T04:41:24;96979.47;;;17.92;100.00
7614;BME280;3848;42.016;23.098;2022-08-01T04:43:52;96985.06;;;18.02;100.00
7614;BME280;3848;42.016;23.098;2022-08-01T04:46:20;96994.25;;;18.08;100.00
7614;BME280;3848;42.016;23.098;2022-08-01T04:48:50;97001.69;;;18.15;100.00
7614;BME280;3848;42.016;23.098;2022-08-01T04:51:17;96986.38;;;18.12;100.00
7614;BME280;3848;42.016;23.098;2022-08-01T04:53:48;96997.31;;;18.17;100.00
7614;BME280;3848;42.016;23.098;2022-08-01T04:56:16;97004.13;;;18.18;100.00
7614;BME280;3848;42.016;23.098;2022-08-01T04:58:44;97001.50;;;18.20;100.00
7614;BME280;3848;42.016;23.098;2022-08-01T05:01:11;96960.94;;;18.05;100.00
7614;BME280;3848;42.016;23.098;2022-08-01T05:03:38;97006.84;;;18.36;100.00
7614;BME280;3848;42.016;23.098;2022-08-01T05:06:06;96999.06;;;18.37;100.00
7614;BME280;3848;42.016;23.098;2022-08-01T05:08:33;96994.38;;;18.47;100.00
7614;BME280;3848;42.016;23.098;2022-08-01T05:11:01;96991.50;;;18.54;100.00
7614;BME280;3848;42.016;23.098;2022-08-01T05:13:28;97007.63;;;18.58;100.00
7614;BME280;3848;42.016;23.098;2022-08-01T05:15:55;97005.00;;;18.59;100.00
7614;BME280;3848;42.016;23.098;2022-08-01T05:18:22;97009.31;;;18.59;100.00
7614;BME280;3848;42.016;23.098;2022-08-01T05:20:50;97011.59;;;18.67;100.00
7614;BME280;3848;42.016;23.098;2022-08-01T05:23:18;97008.44;;;18.80;100.00
7614;BME280;3848;42.016;23.098;2022-08-01T05:25:45;96986.94;;;18.81;100.00
7614;BME280;3848;42.016;23.098;2022-08-01T05:28:12;97005.69;;;19.04;100.00
7614;BME280;3848;42.016;23.098;2022-08-01T05:30:39;97008.69;;;19.13;100.00
7614;BME280;3848;42.016;23.098;2022-08-01T05:33:06;97001.53;;;19.20;100.00
7614;BME280;3848;42.016;23.098;2022-08-01T05:35:33;97006.13;;;19.32;100.00
7614;BME280;3848;42.016;23.098;2022-08-01T05:38:00;96974.03;;;19.21;100.00
7614;BME280;3848;42.016;23.098;2022-08-01T05:40:28;97002.47;;;19.57;100.00
7614;BME280;3848;42.016;23.098;2022-08-01T05:42:55;97010.63;;;19.66;100.00
7614;BME280;3848;42.016;23.098;2022-08-01T05:45:22;97009.50;;;19.72;100.00
7614;BME280;3848;42.016;23.098;2022-08-01T05:47:49;97004.97;;;19.77;100.00
7614;BME280;3848;42.016;23.098;2022-08-01T05:50:16;96999.31;;;19.88;100.00
7614;BME280;3848;42.016;23.098;2022-08-01T05:52:42;96997.19;;;19.96;100.00
7614;BME280;3848;42.016;23.098;2022-08-01T05:55:09;97000.25;;;20.04;100.00
7614;BME280;3848;42.016;23.098;2022-08-01T05:57:37;97007.47;;;20.15;100.00
7614;BME280;3848;42.016;23.098;2022-08-01T06:00:06;97010.91;;;20.32;100.00
7614;BME280;3848;42.016;23.098;2022-08-01T06:02:33;97002.78;;;20.40;100.00
7614;BME280;3848;42.016;23.098;2022-08-01T06:05:00;97001.78;;;20.44;100.00
7614;BME280;3848;42.016;23.098;2022-08-01T06:07:26;96993.56;;;20.53;100.00
7614;BME280;3848;42.016;23.098;2022-08-01T06:09:53;96997.56;;;20.59;100.00
7614;BME280;3848;42.016;23.098;2022-08-01T06:12:20;96994.47;;;20.69;100.00
7614;BME280;3848;42.016;23.098;2022-08-01T06:14:48;96986.06;;;20.82;100.00
7614;BME280;3848;42.016;23.098;2022-08-01T06:17:15;96992.38;;;20.93;100.00
7614;BME280;3848;42.016;23.098;2022-08-01T06:19:42;96992.59;;;21.06;100.00
7614;BME280;3848;42.016;23.098;2022-08-01T06:22:09;96989.34;;;21.18;100.00
7614;BME280;3848;42.016;23.098;2022-08-01T06:24:36;96983.09;;;21.22;100.00
7614;BME280;3848;42.016;23.098;2022-08-01T06:27:03;96975.72;;;21.32;100.00
7614;BME280;3848;42.016;23.098;2022-08-01T06:29:30;96971.97;;;21.38;100.00
7614;BME280;3848;42.016;23.098;2022-08-01T06:31:59;96964.47;;;21.49;100.00
7614;BME280;3848;42.016;23.098;2022-08-01T06:34:26;96966.56;;;21.58;100.00
7614;BME280;3848;42.016;23.098;2022-08-01T06:36:52;96957.78;;;21.60;100.00
7614;BME280;3848;42.016;23.098;2022-08-01T06:39:19;96963.63;;;21.80;100.00
7614;BME280;3848;42.016;23.098;2022-08-01T06:41:46;96957.69;;;21.94;100.00
7614;BME280;3848;42.016;23.098;2022-08-01T06:44:13;96951.97;;;22.03;100.00
7614;BME280;3848;42.016;23.098;2022-08-01T06:46:40;96962.41;;;22.17;100.00
7614;BME280;3848;42.016;23.098;2022-08-01T06:49:09;96954.81;;;22.14;100.00
7614;BME280;3848;42.016;23.098;2022-08-01T06:51:35;96953.38;;;22.24;100.00
7614;BME280;3848;42.016;23.098;2022-08-01T06:54:02;96955.44;;;22.33;100.00
7614;BME280;3848;42.016;23.098;2022-08-01T06:56:29;96948.97;;;22.40;100.00
7614;BME280;3848;42.016;23.098;2022-08-01T06:58:56;96940.84;;;22.46;100.00
7614;BME280;3848;42.016;23.098;2022-08-01T07:01:26;96937.16;;;22.50;97.08
7614;BME280;3848;42.016;23.098;2022-08-01T07:03:53;96944.75;;;22.68;91.41
7614;BME280;3848;42.016;23.098;2022-08-01T07:06:22;96940.50;;;22.81;87.93
7614;BME280;3848;42.016;23.098;2022-08-01T07:08:49;96935.72;;;22.89;79.93
7614;BME280;3848;42.016;23.098;2022-08-01T07:11:16;96935.72;;;22.89;79.25
7614;BME280;3848;42.016;23.098;2022-08-01T07:13:43;96939.25;;;23.02;74.32
7614;BME280;3848;42.016;23.098;2022-08-01T07:16:11;96940.91;;;23.03;69.29
7614;BME280;3848;42.016;23.098;2022-08-01T07:18:38;96936.09;;;23.11;74.05
7614;BME280;3848;42.016;23.098;2022-08-01T07:21:04;96938.75;;;23.24;72.52
7614;BME280;3848;42.016;23.098;2022-08-01T07:23:33;96935.22;;;23.39;66.40
7614;BME280;3848;42.016;23.098;2022-08-01T07:26:00;96915.59;;;23.35;69.09
7614;BME280;3848;42.016;23.098;2022-08-01T07:28:27;96905.38;;;23.47;68.08
7614;BME280;3848;42.016;23.098;2022-08-01T07:30:54;96932.47;;;23.69;73.42
7614;BME280;3848;42.016;23.098;2022-08-01T07:33:21;96928.84;;;23.72;75.23
7614;BME280;3848;42.016;23.098;2022-08-01T07:35:48;96928.38;;;23.80;79.13
7614;BME280;3848;42.016;23.098;2022-08-01T07:38:15;96927.66;;;23.90;74.42
7614;BME280;3848;42.016;23.098;2022-08-01T07:40:44;96927.91;;;24.00;72.23
7614;BME280;3848;42.016;23.098;2022-08-01T07:43:11;96931.75;;;24.07;77.15
7614;BME280;3848;42.016;23.098;2022-08-01T07:45:37;96931.81;;;24.20;80.63
7614;BME280;3848;42.016;23.098;2022-08-01T07:48:05;96915.63;;;24.29;75.10
7614;BME280;3848;42.016;23.098;2022-08-01T07:50:33;96925.63;;;24.48;62.62
7614;BME280;3848;42.016;23.098;2022-08-01T07:53:00;96927.09;;;24.65;56.06
7614;BME280;3848;42.016;23.098;2022-08-01T07:55:28;96910.47;;;24.67;56.66
7614;BME280;3848;42.016;23.098;2022-08-01T07:57:57;96901.91;;;24.78;57.56
7614;BME280;3848;42.016;23.098;2022-08-01T08:00:24;96907.25;;;25.02;58.35
7614;BME280;3848;42.016;23.098;2022-08-01T08:02:52;96912.06;;;25.19;55.45
7614;BME280;3848;42.016;23.098;2022-08-01T08:05:20;96911.00;;;25.34;55.33
7614;BME280;3848;42.016;23.098;2022-08-01T08:07:47;96908.69;;;25.42;54.75
7614;BME280;3848;42.016;23.098;2022-08-01T08:10:13;96902.81;;;25.51;54.97
7614;BME280;3848;42.016;23.098;2022-08-01T08:12:40;96905.09;;;25.56;54.52
7614;BME280;3848;42.016;23.098;2022-08-01T08:15:09;96895.81;;;25.65;53.01
7614;BME280;3848;42.016;23.098;2022-08-01T08:17:36;96890.28;;;25.69;55.75
7614;BME280;3848;42.016;23.098;2022-08-01T08:20:05;96901.41;;;25.95;54.87
7614;BME280;3848;42.016;23.098;2022-08-01T08:22:32;96902.88;;;26.10;54.46
7614;BME280;3848;42.016;23.098;2022-08-01T08:24:59;96892.75;;;26.30;52.27
7614;BME280;3848;42.016;23.098;2022-08-01T08:27:26;96883.56;;;26.48;51.67
7614;BME280;3848;42.016;23.098;2022-08-01T08:29:53;96880.59;;;26.64;49.87
7614;BME280;3848;42.016;23.098;2022-08-01T08:32:21;96899.94;;;26.84;49.81
7614;BME280;3848;42.016;23.098;2022-08-01T08:34:48;96891.06;;;26.97;48.63
7614;BME280;3848;42.016;23.098;2022-08-01T08:37:15;96886.00;;;27.07;48.46
7614;BME280;3848;42.016;23.098;2022-08-01T08:39:42;96880.88;;;27.17;49.48
7614;BME280;3848;42.016;23.098;2022-08-01T08:42:10;96891.63;;;27.34;47.32
7614;BME280;3848;42.016;23.098;2022-08-01T08:44:37;96880.56;;;27.42;46.12
7614;BME280;3848;42.016;23.098;2022-08-01T08:47:05;96879.03;;;27.51;48.31
7614;BME280;3848;42.016;23.098;2022-08-01T08:49:35;96878.72;;;27.76;47.74
7614;BME280;3848;42.016;23.098;2022-08-01T08:52:03;96878.53;;;27.89;45.32
7614;BME280;3848;42.016;23.098;2022-08-01T08:54:31;96873.13;;;28.02;44.25
7614;BME280;3848;42.016;23.098;2022-08-01T08:57:00;96873.78;;;28.15;46.79
7614;BME280;3848;42.016;23.098;2022-08-01T08:59:27;96862.00;;;28.41;44.42
7614;BME280;3848;42.016;23.098;2022-08-01T09:01:54;96881.81;;;28.65;44.91
7614;BME280;3848;42.016;23.098;2022-08-01T09:04:21;96856.41;;;28.76;45.11
7614;BME280;3848;42.016;23.098;2022-08-01T09:06:50;96854.19;;;28.51;43.01
7614;BME280;3848;42.016;23.098;2022-08-01T09:09:17;96857.84;;;28.60;42.79
7614;BME280;3848;42.016;23.098;2022-08-01T09:11:44;96859.78;;;28.16;43.89
7614;BME280;3848;42.016;23.098;2022-08-01T09:14:13;96858.13;;;28.15;44.02
7614;BME280;3848;42.016;23.098;2022-08-01T09:16:41;96859.91;;;28.35;43.99
7614;BME280;3848;42.016;23.098;2022-08-01T09:19:13;96860.72;;;28.57;43.18
7614;BME280;3848;42.016;23.098;2022-08-01T09:21:56;96855.25;;;28.69;44.98
7614;BME280;3848;42.016;23.098;2022-08-01T09:24:25;96846.00;;;28.86;43.02
7614;BME280;3848;42.016;23.098;2022-08-01T09:26:52;96848.31;;;29.20;43.41
7614;BME280;3848;42.016;23.098;2022-08-01T09:29:21;96840.09;;;28.94;42.33
7614;BME280;3848;42.016;23.098;2022-08-01T09:31:49;96844.41;;;29.04;44.94
7614;BME280;3848;42.016;23.098;2022-08-01T09:34:24;96833.53;;;29.09;44.00
7614;BME280;3848;42.016;23.098;2022-08-01T09:36:53;96829.41;;;29.16;42.33
7614;BME280;3848;42.016;23.098;2022-08-01T09:39:24;96821.44;;;29.18;43.88
7614;BME280;3848;42.016;23.098;2022-08-01T09:41:53;96829.00;;;29.21;42.73
7614;BME280;3848;42.016;23.098;2022-08-01T09:44:36;96815.88;;;29.01;42.98
7614;BME280;3848;42.016;23.098;2022-08-01T09:47:03;96814.59;;;29.46;43.26
7614;BME280;3848;42.016;23.098;2022-08-01T09:49:31;96823.94;;;29.77;42.57
7614;BME280;3848;42.016;23.098;2022-08-01T09:52:13;96812.38;;;29.70;42.12
7614;BME280;3848;42.016;23.098;2022-08-01T09:54:52;96810.97;;;29.95;42.28
7614;BME280;3848;42.016;23.098;2022-08-01T09:57:19;96805.19;;;29.91;43.43
7614;BME280;3848;42.016;23.098;2022-08-01T09:59:49;96818.25;;;30.30;42.02
7614;BME280;3848;42.016;23.098;2022-08-01T10:02:28;96801.53;;;30.41;41.01
7614;BME280;3848;42.016;23.098;2022-08-01T10:04:56;96803.44;;;30.48;41.37
7614;BME280;3848;42.016;23.098;2022-08-01T10:07:24;96783.28;;;30.76;40.36
7614;BME280;3848;42.016;23.098;2022-08-01T10:09:53;96810.88;;;31.35;38.94
7614;BME280;3848;42.016;23.098;2022-08-01T10:12:22;96784.69;;;31.79;40.56
7614;BME280;3848;42.016;23.098;2022-08-01T10:14:50;96788.34;;;32.30;38.88
7614;BME280;3848;42.016;23.098;2022-08-01T10:17:24;96789.38;;;32.71;37.69
7614;BME280;3848;42.016;23.098;2022-08-01T10:19:52;96772.00;;;32.86;37.39
7614;BME280;3848;42.016;23.098;2022-08-01T10:22:23;96785.66;;;32.90;37.01
7614;BME280;3848;42.016;23.098;2022-08-01T10:24:55;96782.41;;;32.96;37.45
7614;BME280;3848;42.016;23.098;2022-08-01T10:27:23;96768.63;;;33.18;36.88
7614;BME280;3848;42.016;23.098;2022-08-01T10:29:55;96749.34;;;33.10;37.74
7614;BME280;3848;42.016;23.098;2022-08-01T10:32:23;96771.47;;;33.65;37.69
7614;BME280;3848;42.016;23.098;2022-08-01T10:34:50;96783.53;;;33.76;37.20
7614;BME280;3848;42.016;23.098;2022-08-01T10:37:18;96773.97;;;33.67;35.98
7614;BME280;3848;42.016;23.098;2022-08-01T10:39:45;96772.56;;;33.30;36.38
7614;BME280;3848;42.016;23.098;2022-08-01T10:42:14;96768.47;;;32.69;36.98
7614;BME280;3848;42.016;23.098;2022-08-01T10:44:41;96780.31;;;32.31;37.71
7614;BME280;3848;42.016;23.098;2022-08-01T10:47:13;96752.63;;;32.61;37.84
7614;BME280;3848;42.016;23.098;2022-08-01T10:49:43;96759.22;;;32.99;37.50
7614;BME280;3848;42.016;23.098;2022-08-01T10:52:15;96760.31;;;33.55;36.78
7614;BME280;3848;42.016;23.098;2022-08-01T10:54:42;96768.03;;;33.32;35.47
7614;BME280;3848;42.016;23.098;2022-08-01T10:57:10;96765.06;;;33.44;36.29
7614;BME280;3848;42.016;23.098;2022-08-01T10:59:48;96758.66;;;33.54;35.25
7614;BME280;3848;42.016;23.098;2022-08-01T11:02:26;96755.03;;;33.88;36.31
7614;BME280;3848;42.016;23.098;2022-08-01T11:04:56;96751.06;;;33.84;34.37
7614;BME280;3848;42.016;23.098;2022-08-01T11:07:40;96751.50;;;34.12;34.76
7614;BME280;3848;42.016;23.098;2022-08-01T11:10:17;96756.78;;;34.36;35.66
7614;BME280;3848;42.016;23.098;2022-08-01T11:12:46;96746.00;;;34.46;35.16
7614;BME280;3848;42.016;23.098;2022-08-01T11:15:24;96735.31;;;34.39;34.63
7614;BME280;3848;42.016;23.098;2022-08-01T11:17:53;96746.88;;;34.69;34.95
7614;BME280;3848;42.016;23.098;2022-08-01T11:20:21;96730.56;;;34.66;34.60
7614;BME280;3848;42.016;23.098;2022-08-01T11:23:17;96742.31;;;34.94;33.68
7614;BME280;3848;42.016;23.098;2022-08-01T11:26:06;96723.34;;;35.22;34.99
7614;BME280;3848;42.016;23.098;2022-08-01T11:28:33;96735.41;;;34.93;32.56
7614;BME280;3848;42.016;23.098;2022-08-01T11:31:28;96718.66;;;34.70;33.52
7614;BME280;3848;42.016;23.098;2022-08-01T11:33:57;96725.13;;;34.67;33.88
7614;BME280;3848;42.016;23.098;2022-08-01T11:36:24;96726.63;;;35.01;34.11
7614;BME280;3848;42.016;23.098;2022-08-01T11:39:13;96723.16;;;35.23;33.63
7614;BME280;3848;42.016;23.098;2022-08-01T11:41:41;96671.19;;;35.15;33.61
7614;BME280;3848;42.016;23.098;2022-08-01T11:44:09;96712.88;;;35.51;33.50
7614;BME280;3848;42.016;23.098;2022-08-01T11:47:05;96720.31;;;35.70;32.58
7614;BME280;3848;42.016;23.098;2022-08-01T11:49:46;96723.22;;;35.75;32.00
7614;BME280;3848;42.016;23.098;2022-08-01T11:52:15;96718.16;;;35.51;32.62
7614;BME280;3848;42.016;23.098;2022-08-01T11:54:44;96723.09;;;35.31;32.50
7614;BME280;3848;42.016;23.098;2022-08-01T11:57:13;96718.06;;;35.44;32.76
7614;BME280;3848;42.016;23.098;2022-08-01T11:59:42;96720.19;;;35.49;33.67
7614;BME280;3848;42.016;23.098;2022-08-01T12:02:17;96708.47;;;35.66;31.69
7614;BME280;3848;42.016;23.098;2022-08-01T12:04:55;96716.31;;;35.74;32.82
7614;BME280;3848;42.016;23.098;2022-08-01T12:07:23;96714.75;;;35.65;31.89
7614;BME280;3848;42.016;23.098;2022-08-01T12:10:03;96716.56;;;35.65;31.85
7614;BME280;3848;42.016;23.098;2022-08-01T12:12:31;96696.75;;;35.61;32.28
7614;BME280;3848;42.016;23.098;2022-08-01T12:15:03;96693.41;;;35.82;31.75
7614;BME280;3848;42.016;23.098;2022-08-01T12:17:36;96701.22;;;35.83;31.39
7614;BME280;3848;42.016;23.098;2022-08-01T12:20:05;96701.97;;;35.69;31.55
7614;BME280;3848;42.016;23.098;2022-08-01T12:22:33;96701.31;;;35.90;31.61
7614;BME280;3848;42.016;23.098;2022-08-01T12:25:08;96688.09;;;36.04;31.61
7614;BME280;3848;42.016;23.098;2022-08-01T12:27:36;96693.47;;;35.96;32.67
7614;BME280;3848;42.016;23.098;2022-08-01T12:30:05;96679.47;;;35.73;31.70
7614;BME280;3848;42.016;23.098;2022-08-01T12:32:36;96677.59;;;35.59;31.38
7614;BME280;3848;42.016;23.098;2022-08-01T12:35:05;96676.16;;;35.33;32.04
7614;BME280;3848;42.016;23.098;2022-08-01T12:37:35;96674.53;;;35.32;33.24
7614;BME280;3848;42.016;23.098;2022-08-01T12:40:09;96683.63;;;35.53;32.01
7614;BME280;3848;42.016;23.098;2022-08-01T12:42:37;96673.78;;;35.47;31.97
7614;BME280;3848;42.016;23.098;2022-08-01T12:45:06;96677.28;;;35.62;30.93
7614;BME280;3848;42.016;23.098;2022-08-01T12:47:37;96662.41;;;35.75;30.67
7614;BME280;3848;42.016;23.098;2022-08-01T12:50:06;96658.41;;;35.65;30.19
7614;BME280;3848;42.016;23.098;2022-08-01T12:52:34;96670.81;;;35.64;30.93
7614;BME280;3848;42.016;23.098;2022-08-01T12:55:04;96649.44;;;35.81;30.73
7614;BME280;3848;42.016;23.098;2022-08-01T12:57:32;96657.47;;;35.72;29.77
7614;BME280;3848;42.016;23.098;2022-08-01T13:00:07;96651.66;;;35.62;30.80
7614;BME280;3848;42.016;23.098;2022-08-01T13:02:36;96651.94;;;35.97;30.94
7614;BME280;3848;42.016;23.098;2022-08-01T13:05:05;96653.03;;;36.02;30.17
7614;BME280;3848;42.016;23.098;2022-08-01T13:07:40;96649.03;;;35.92;29.74
7614;BME280;3848;42.016;23.098;2022-08-01T13:10:08;96656.25;;;35.98;30.36
7614;BME280;3848;42.016;23.098;2022-08-01T13:12:35;96632.97;;;36.08;29.35
7614;BME280;3848;42.016;23.098;2022-08-01T13:15:20;96639.72;;;35.96;29.36
7614;BME280;3848;42.016;23.098;2022-08-01T13:17:50;96645.34;;;35.78;29.64